Time;durP1;ratioP1;P1;durP2;ratioP2;P2;SDS_P1;SDS_P2;PMS_P1;PMS_P2;Temp;Humidity;BMP_temperature;BMP_pressure;BME280_temperature;BME280_humidity;BME280_pressure;Samples;Min_cycle;Max_cycle;Signal;HPM_P1;HPM_P2
2023/01/07 00:01:59;;;;;;;1.43;1.33;;;;;;;12.33;57.53;98437.47;8281339;28;20259;-74
2023/01/07 00:06:03;;;;;;;1.60;1.50;;;;;;;12.52;57.27;98435.75;8281148;28;20239;-74
2023/01/07 00:10:08;;;;;;;1.83;1.63;;;;;;;12.55;57.03;98437.38;8281256;28;20229;-73
2023/01/07 00:14:12;;;;;;;1.57;1.47;;;;;;;12.27;57.39;98445.56;8281029;28;20228;-74
2023/01/07 00:18:15;;;;;;;1.53;1.43;;;;;;;12.46;56.96;98443.00;8281349;28;20233;-74
2023/01/07 00:22:18;;;;;;;1.63;1.53;;;;;;;12.28;57.94;98437.69;8285646;28;20237;-74
2023/01/07 00:26:23;;;;;;;2.37;1.50;;;;;;;12.39;57.57;98432.00;8287723;28;20233;-74
2023/01/07 00:30:26;;;;;;;1.60;1.50;;;;;;;12.37;57.72;98438.19;8287599;28;20259;-74
2023/01/07 00:34:29;;;;;;;2.00;1.77;;;;;;;12.49;57.69;98438.50;8287533;28;20536;-74
2023/01/07 00:38:31;;;;;;;3.00;1.90;;;;;;;12.43;57.43;98433.59;8287145;28;20241;-74
2023/01/07 00:42:54;;;;;;;2.70;1.87;;;;;;;12.46;57.45;98430.00;8286916;28;20230;-74
2023/01/07 00:46:57;;;;;;;2.10;1.90;;;;;;;12.32;58.26;98425.44;8286859;28;20227;-74
2023/01/07 00:51:00;;;;;;;1.87;1.77;;;;;;;12.30;57.88;98424.66;8286964;28;20234;-74
2023/01/07 00:55:03;;;;;;;2.47;2.20;;;;;;;12.44;57.86;98418.84;8286918;28;20484;-74
2023/01/07 00:59:07;;;;;;;2.40;2.20;;;;;;;12.50;58.09;98419.41;8286618;28;20232;-74
2023/01/07 01:03:11;;;;;;;3.70;2.47;;;;;;;12.43;57.98;98401.56;8286651;28;20230;-74
2023/01/07 01:07:14;;;;;;;2.80;1.70;;;;;;;12.54;57.34;98416.66;8286395;28;20562;-74
2023/01/07 01:11:16;;;;;;;2.60;1.77;;;;;;;12.55;57.64;98414.00;8286243;28;20227;-74
2023/01/07 01:15:21;;;;;;;1.53;1.43;;;;;;;12.58;57.14;98408.66;8286048;28;20233;-74
2023/01/07 01:19:23;;;;;;;2.33;1.60;;;;;;;12.50;57.42;98410.75;8285871;28;20241;-74
2023/01/07 01:23:26;;;;;;;1.93;1.67;;;;;;;12.47;57.95;98413.50;8285628;28;20238;-74
2023/01/07 01:27:29;;;;;;;1.73;1.63;;;;;;;12.46;57.54;98410.06;8285788;28;20416;-74
2023/01/07 01:31:33;;;;;;;1.97;1.83;;;;;;;12.52;57.21;98406.34;8285281;28;20286;-74
2023/01/07 01:35:39;;;;;;;2.50;1.77;;;;;;;12.27;58.25;98406.59;8285737;28;20551;-74
2023/01/07 01:39:42;;;;;;;1.87;1.60;;;;;;;12.41;57.96;98412.00;8285053;28;20219;-73
2023/01/07 01:43:45;;;;;;;1.67;1.57;;;;;;;12.33;58.06;98408.91;8284928;28;20627;-73
2023/01/07 01:47:52;;;;;;;1.97;1.70;;;;;;;12.32;58.37;98412.44;8285030;28;20282;-74
2023/01/07 01:51:57;;;;;;;1.50;1.40;;;;;;;12.36;57.92;98413.16;8284787;28;20248;-75
2023/01/07 01:56:03;;;;;;;2.63;1.80;;;;;;;12.37;58.03;98402.66;8284979;28;20539;-74
2023/01/07 02:00:07;;;;;;;2.07;1.87;;;;;;;12.36;58.29;98401.00;8284783;28;20417;-73
2023/01/07 02:08:28;;;;;;;1.70;1.60;;;;;;;12.35;57.69;98398.47;8494690;23;20293;-74
2023/01/07 02:12:42;;;;;;;1.73;1.63;;;;;;;12.36;57.89;98401.00;8314847;28;20434;-73
2023/01/07 02:16:53;;;;;;;1.70;1.60;;;;;;;12.20;58.66;98397.38;8314395;28;20225;-73
2023/01/07 02:21:02;;;;;;;2.97;2.00;;;;;;;12.37;58.96;98394.88;8314609;28;20237;-72
2023/01/07 02:25:42;;;;;;;2.80;1.90;;;;;;;12.31;58.05;98385.59;8314210;28;20236;-72
2023/01/07 02:30:06;;;;;;;2.27;2.07;;;;;;;12.30;58.73;98383.09;8313817;28;20232;-72
2023/01/07 02:34:12;;;;;;;3.07;2.47;;;;;;;12.31;58.64;98379.56;8314522;28;20274;-72
2023/01/07 02:38:21;;;;;;;2.30;2.10;;;;;;;12.12;58.68;98379.56;8314416;28;20550;-72
2023/01/07 02:42:31;;;;;;;2.47;2.27;;;;;;;12.31;58.57;98375.22;8313728;28;20523;-73
2023/01/07 02:46:36;;;;;;;2.60;2.40;;;;;;;12.20;58.74;98367.06;8314099;28;20248;-73
2023/01/07 02:50:41;;;;;;;2.33;2.07;;;;;;;12.29;58.70;98364.06;8314028;28;20224;-73
2023/01/07 02:54:45;;;;;;;3.33;2.10;;;;;;;12.31;58.83;98358.81;8313212;28;20552;-73
2023/01/07 02:58:57;;;;;;;2.47;2.27;;;;;;;12.26;58.85;98353.84;8313990;28;20520;-73
2023/01/07 03:03:20;;;;;;;2.30;2.10;;;;;;;12.29;58.49;98339.84;8313864;28;20250;-72
2023/01/07 03:07:33;;;;;;;2.47;2.07;;;;;;;12.38;59.03;98341.22;8313450;28;20294;-72
2023/01/07 03:11:47;;;;;;;2.47;1.77;;;;;;;12.38;58.51;98331.66;8313146;28;20226;-72
2023/01/07 03:15:53;;;;;;;2.70;2.30;;;;;;;12.17;58.93;98332.63;8312948;28;20234;-73
2023/01/07 03:19:59;;;;;;;2.90;2.70;;;;;;;12.19;59.39;98328.22;8313254;28;20410;-73
2023/01/07 03:24:06;;;;;;;3.67;2.90;;;;;;;12.25;59.63;98328.75;8312520;28;20230;-73
2023/01/07 03:28:11;;;;;;;3.67;2.73;;;;;;;12.37;59.64;98329.13;8312765;28;20232;-72
2023/01/07 03:32:17;;;;;;;3.13;2.93;;;;;;;12.37;58.97;98318.72;8313041;28;20344;-72
2023/01/07 03:36:24;;;;;;;2.50;2.30;;;;;;;12.35;58.89;98324.00;8313082;28;20411;-73
2023/01/07 03:40:28;;;;;;;2.37;2.17;;;;;;;12.40;59.10;98316.84;8312729;28;20225;-73
2023/01/07 03:44:31;;;;;;;2.10;1.70;;;;;;;12.33;59.45;98318.84;8312926;28;20227;-72
2023/01/07 03:48:33;;;;;;;2.20;2.00;;;;;;;12.32;59.36;98309.41;8312790;28;20232;-73
2023/01/07 03:52:36;;;;;;;2.17;2.00;;;;;;;12.29;59.44;98308.69;8312613;28;20235;-73
2023/01/07 03:56:41;;;;;;;2.40;2.20;;;;;;;12.13;58.86;98291.22;8312775;28;20418;-73
2023/01/07 04:00:43;;;;;;;2.27;2.07;;;;;;;12.22;59.53;98300.34;8311473;28;20222;-72
2023/01/07 04:04:46;;;;;;;2.20;2.00;;;;;;;12.17;59.54;98289.34;8311779;28;20251;-72
2023/01/07 04:08:49;;;;;;;2.93;2.33;;;;;;;12.13;59.56;98293.81;8311373;28;20319;-73
2023/01/07 04:12:53;;;;;;;2.20;1.97;;;;;;;12.19;59.81;98295.28;8311883;28;20243;-72
2023/01/07 04:16:56;;;;;;;2.17;1.97;;;;;;;12.12;59.36;98267.91;8312127;28;20260;-72
2023/01/07 04:20:59;;;;;;;3.57;2.47;;;;;;;12.23;59.26;98283.84;8311935;28;20319;-72
2023/01/07 04:25:01;;;;;;;2.53;2.40;;;;;;;12.07;59.43;98269.88;8311351;28;20251;-73
2023/01/07 04:29:05;;;;;;;2.50;2.30;;;;;;;12.19;59.53;98277.13;8311199;28;20235;-73
2023/01/07 04:33:08;;;;;;;2.53;2.17;;;;;;;11.98;60.29;98268.56;8311619;28;20251;-73
2023/01/07 04:37:11;;;;;;;3.03;2.40;;;;;;;12.15;58.95;98264.34;8311617;28;20408;-74
2023/01/07 04:41:14;;;;;;;3.57;2.43;;;;;;;12.14;59.73;98271.28;8311711;28;20238;-73
2023/01/07 04:45:18;;;;;;;2.53;2.33;;;;;;;12.17;59.78;98257.34;8311578;28;20231;-73
2023/01/07 04:49:21;;;;;;;2.63;2.43;;;;;;;12.03;59.61;98258.81;8311547;28;20274;-73
2023/01/07 04:53:24;;;;;;;3.90;2.70;;;;;;;11.98;59.99;98260.78;8311478;28;20233;-73
2023/01/07 04:57:27;;;;;;;2.60;2.40;;;;;;;12.08;59.70;98254.22;8311206;28;20243;-73
2023/01/07 05:01:31;;;;;;;3.00;2.80;;;;;;;11.99;59.94;98244.28;8311103;28;20522;-73
2023/01/07 05:05:34;;;;;;;2.53;2.33;;;;;;;12.06;60.03;98239.66;8311207;28;20298;-73
2023/01/07 05:09:37;;;;;;;2.70;2.47;;;;;;;12.03;59.79;98232.84;8317268;28;20230;-73
2023/01/07 05:13:40;;;;;;;2.63;2.43;;;;;;;12.08;59.87;98217.88;8316648;28;20233;-72
2023/01/07 05:17:44;;;;;;;3.73;2.70;;;;;;;12.12;59.85;98228.97;8316378;28;20450;-72
2023/01/07 05:21:47;;;;;;;2.73;2.50;;;;;;;12.01;60.19;98226.88;8316716;28;20241;-72
2023/01/07 05:25:50;;;;;;;2.90;2.70;;;;;;;12.15;59.21;98218.47;8316462;28;20238;-73
2023/01/07 05:29:53;;;;;;;3.10;2.90;;;;;;;12.04;59.83;98218.13;8316284;28;20538;-73
2023/01/07 05:33:57;;;;;;;2.90;2.70;;;;;;;11.95;60.16;98195.19;8316364;28;20239;-73
2023/01/07 05:38:00;;;;;;;2.97;2.70;;;;;;;12.21;60.10;98217.34;8314893;28;20233;-73
2023/01/07 05:42:03;;;;;;;3.13;2.83;;;;;;;12.12;59.88;98208.22;8316639;28;20529;-73
2023/01/07 05:46:06;;;;;;;2.80;2.60;;;;;;;12.14;60.39;98216.75;8316470;28;20241;-73
2023/01/07 05:50:10;;;;;;;3.27;2.90;;;;;;;12.09;60.21;98210.97;8315927;28;20432;-73
2023/01/07 05:54:13;;;;;;;2.70;2.50;;;;;;;12.10;60.52;98204.84;8315839;28;20538;-73
2023/01/07 05:58:16;;;;;;;3.03;2.73;;;;;;;12.09;60.24;98204.00;8315815;28;20239;-73
2023/01/07 06:02:18;;;;;;;3.13;2.80;;;;;;;12.09;60.19;98195.41;8315417;28;20231;-73
2023/01/07 06:06:23;;;;;;;2.90;2.60;;;;;;;12.12;60.07;98190.03;8315015;28;20278;-73
2023/01/07 06:10:25;;;;;;;3.20;3.00;;;;;;;12.10;60.51;98194.47;8315304;28;20242;-73
2023/01/07 06:14:28;;;;;;;3.43;3.13;;;;;;;12.08;60.37;98186.75;8315254;28;20224;-73
2023/01/07 06:18:31;;;;;;;3.30;3.00;;;;;;;12.11;60.43;98193.56;8314426;28;20230;-73
2023/01/07 06:22:35;;;;;;;3.20;2.90;;;;;;;11.79;60.08;98127.56;8315398;28;20238;-73
2023/01/07 06:26:38;;;;;;;3.30;3.00;;;;;;;12.04;60.47;98174.81;8314941;28;20306;-73
2023/01/07 06:30:41;;;;;;;4.27;3.30;;;;;;;12.08;60.47;98191.09;8314168;28;20253;-73
2023/01/07 06:34:44;;;;;;;3.93;3.50;;;;;;;11.95;60.54;98179.59;8314588;28;20224;-73
2023/01/07 06:38:48;;;;;;;5.73;4.70;;;;;;;11.93;60.83;98174.47;8314636;28;20498;-73
2023/01/07 06:42:51;;;;;;;4.73;4.20;;;;;;;11.90;61.03;98172.88;8314278;28;20246;-73
2023/01/07 06:46:54;;;;;;;4.57;4.00;;;;;;;12.04;60.70;98167.03;8314245;28;20232;-72
2023/01/07 06:50:56;;;;;;;4.60;4.20;;;;;;;12.06;60.44;98164.38;8314006;28;20231;-73
2023/01/07 06:55:01;;;;;;;4.80;4.33;;;;;;;11.97;61.00;98165.63;8314304;28;20625;-73
2023/01/07 06:59:03;;;;;;;4.47;3.77;;;;;;;11.78;61.70;98152.66;8314126;28;20235;-73
2023/01/07 07:03:06;;;;;;;4.73;4.27;;;;;;;11.98;61.36;98162.13;8313657;28;20269;-73
2023/01/07 07:07:09;;;;;;;7.93;6.73;;;;;;;11.88;61.50;98164.28;8313317;28;20410;-73
2023/01/07 07:11:13;;;;;;;4.70;4.30;;;;;;;11.39;63.19;98152.72;8313589;28;20230;-73
2023/01/07 07:15:16;;;;;;;4.80;4.30;;;;;;;11.89;61.42;98166.00;8313290;28;20226;-73
2023/01/07 07:19:19;;;;;;;4.00;3.70;;;;;;;11.90;61.31;98161.66;8313724;28;20230;-73
2023/01/07 07:23:22;;;;;;;3.93;3.63;;;;;;;11.37;61.48;98074.16;8313459;28;20518;-74
2023/01/07 07:27:26;;;;;;;4.57;4.17;;;;;;;11.82;61.71;98149.03;8313089;28;20226;-72
2023/01/07 07:31:29;;;;;;;4.40;4.03;;;;;;;12.05;61.46;98149.69;8312641;28;20234;-72
2023/01/07 07:35:32;;;;;;;5.20;4.70;;;;;;;11.80;61.85;98148.22;8313414;28;20249;-72
2023/01/07 07:39:35;;;;;;;5.67;5.17;;;;;;;12.02;61.34;98145.50;8313187;28;20411;-73
2023/01/07 07:43:39;;;;;;;6.77;5.40;;;;;;;11.49;63.12;98134.06;8312951;28;20223;-73
2023/01/07 07:47:42;;;;;;;6.77;5.50;;;;;;;11.46;63.69;98133.34;8312068;28;20230;-73
2023/01/07 07:51:44;;;;;;;4.87;4.37;;;;;;;11.58;63.52;98127.63;8312464;28;20230;-72
2023/01/07 07:55:47;;;;;;;4.70;4.20;;;;;;;11.89;62.40;98134.00;8312867;28;20234;-73
2023/01/07 07:59:51;;;;;;;5.03;4.50;;;;;;;11.83;62.47;98124.75;8312554;28;20231;-72
2023/01/07 08:03:54;;;;;;;4.60;4.20;;;;;;;11.71;62.54;98120.13;8312190;28;20230;-73
2023/01/07 08:07:57;;;;;;;5.47;4.97;;;;;;;11.73;62.79;98113.94;8312431;28;20262;-72
2023/01/07 08:12:00;;;;;;;5.00;4.60;;;;;;;11.96;62.61;98119.84;8312406;28;20239;-72
2023/01/07 08:16:04;;;;;;;6.10;5.57;;;;;;;11.95;61.86;98114.72;8312419;28;20226;-74
2023/01/07 08:20:09;;;;;;;5.97;4.90;;;;;;;11.60;62.17;98045.41;8312223;28;20241;-73
2023/01/07 08:24:12;;;;;;;6.20;4.97;;;;;;;11.88;62.29;98099.41;8312250;28;20234;-73
2023/01/07 08:28:15;;;;;;;6.10;5.50;;;;;;;11.48;64.28;98103.00;8312447;28;20238;-73
2023/01/07 08:32:19;;;;;;;8.53;6.37;;;;;;;11.44;63.83;98091.09;8311727;28;20245;-74
2023/01/07 08:36:22;;;;;;;5.80;5.10;;;;;;;11.93;62.58;98091.44;8311940;28;20226;-71
2023/01/07 08:40:25;;;;;;;5.40;4.90;;;;;;;11.91;62.61;98093.25;8312054;28;20251;-72
2023/01/07 08:44:28;;;;;;;4.87;4.43;;;;;;;12.12;62.02;98089.63;8317906;28;20227;-76
2023/01/07 08:48:32;;;;;;;4.90;4.50;;;;;;;12.02;62.41;98085.81;8317700;28;20234;-75
2023/01/07 08:52:35;;;;;;;7.17;5.20;;;;;;;11.89;62.27;98082.94;8317952;28;20226;-75
2023/01/07 08:56:38;;;;;;;5.50;5.00;;;;;;;11.95;61.93;98076.63;8317474;28;20228;-73
2023/01/07 09:00:41;;;;;;;5.47;4.63;;;;;;;11.87;62.31;98069.19;8317076;28;20514;-75
2023/01/07 09:04:46;;;;;;;6.10;5.60;;;;;;;11.29;64.33;98077.06;8317333;28;20226;-75
2023/01/07 09:08:49;;;;;;;6.53;5.93;;;;;;;11.57;63.45;98071.47;8316925;28;20514;-75
2023/01/07 09:12:51;;;;;;;6.80;6.20;;;;;;;11.41;64.11;98066.16;8317035;28;20252;-75
2023/01/07 09:16:55;;;;;;;6.43;5.87;;;;;;;11.28;65.09;98070.22;8317314;28;20346;-75
2023/01/07 09:20:59;;;;;;;6.57;5.97;;;;;;;11.18;65.06;98071.56;8317020;28;20246;-76
2023/01/07 09:25:02;;;;;;;5.63;5.13;;;;;;;11.42;64.98;98065.22;8316998;28;20557;-75
2023/01/07 09:29:05;;;;;;;5.00;4.60;;;;;;;11.63;63.68;98068.63;8316348;28;20234;-75
2023/01/07 09:33:08;;;;;;;5.40;4.90;;;;;;;11.51;63.22;98045.81;8316468;28;20245;-75
2023/01/07 09:37:12;;;;;;;5.90;5.00;;;;;;;11.92;63.17;98069.84;8316678;28;20230;-76
2023/01/07 09:41:24;;;;;;;6.20;5.23;;;;;;;11.43;64.36;98072.13;8316766;28;20236;-76
2023/01/07 09:45:29;;;;;;;5.53;5.03;;;;;;;11.23;64.90;98067.84;8315894;28;20226;-76
2023/01/07 09:49:32;;;;;;;5.97;5.20;;;;;;;11.33;64.82;98069.09;8315871;28;20321;-75
2023/01/07 09:53:40;;;;;;;6.00;5.50;;;;;;;11.47;64.13;98060.69;8315996;28;20521;-75
2023/01/07 09:57:43;;;;;;;5.27;4.67;;;;;;;11.47;64.37;98065.88;8315303;28;20242;-75
2023/01/07 10:01:49;;;;;;;5.83;5.30;;;;;;;11.04;64.05;97976.28;8315529;28;20230;-76
2023/01/07 10:06:02;;;;;;;6.50;5.63;;;;;;;11.50;63.79;98050.19;8315926;28;20242;-76
2023/01/07 10:10:13;;;;;;;5.57;5.07;;;;;;;11.37;64.60;98032.69;8316010;28;20256;-76
2023/01/07 10:14:38;;;;;;;5.07;4.47;;;;;;;12.08;61.98;98030.16;8316209;28;20226;-76
2023/01/07 10:18:47;;;;;;;4.83;4.33;;;;;;;11.83;61.94;97981.19;8306956;28;20239;-77
2023/01/07 10:22:54;;;;;;;5.20;4.73;;;;;;;11.95;61.34;98014.34;8315725;28;20246;-79
2023/01/07 10:27:02;;;;;;;5.23;4.73;;;;;;;11.54;62.39;98015.41;8316327;28;20226;-77
2023/01/07 10:31:05;;;;;;;4.23;3.93;;;;;;;11.94;61.05;97989.31;8315675;28;20226;-77
2023/01/07 10:35:16;;;;;;;4.40;4.00;;;;;;;11.57;61.63;97998.00;8315140;28;20231;-76
2023/01/07 10:39:25;;;;;;;4.57;3.90;;;;;;;11.29;62.45;97991.53;8315255;28;20421;-76
2023/01/07 10:43:45;;;;;;;3.80;3.50;;;;;;;11.73;60.31;97973.84;8315014;28;20333;-76
2023/01/07 10:48:00;;;;;;;4.47;3.60;;;;;;;11.76;59.85;97982.41;8313843;28;20238;-76
2023/01/07 10:52:13;;;;;;;3.83;3.53;;;;;;;11.68;60.21;97929.13;8314569;28;20238;-77
2023/01/07 10:56:24;;;;;;;4.30;3.63;;;;;;;12.09;59.93;97975.56;8314418;28;20416;-76
2023/01/07 11:00:28;;;;;;;3.70;3.40;;;;;;;11.72;59.47;97963.56;8314215;28;20241;-76
2023/01/07 11:04:31;;;;;;;3.33;3.13;;;;;;;11.80;59.61;97950.19;8313362;28;20223;-75
2023/01/07 11:08:38;;;;;;;4.43;3.63;;;;;;;12.22;58.10;97941.19;8314044;28;20526;-75
2023/01/07 11:12:45;;;;;;;3.10;2.90;;;;;;;12.10;57.38;97921.91;8314257;28;20325;-75
2023/01/07 11:16:51;;;;;;;3.43;3.20;;;;;;;12.13;57.67;97920.00;8314565;28;20577;-76
2023/01/07 11:20:56;;;;;;;3.20;2.90;;;;;;;12.36;57.25;97936.13;8313082;28;20558;-74
2023/01/07 11:25:00;;;;;;;2.87;2.67;;;;;;;12.17;56.95;97927.63;8313457;28;20238;-75
2023/01/07 11:29:16;;;;;;;3.07;2.87;;;;;;;12.23;57.03;97927.31;8313346;28;20230;-76
2023/01/07 11:33:25;;;;;;;3.10;2.80;;;;;;;12.74;56.46;97915.09;8313594;28;20244;-76
2023/01/07 11:37:48;;;;;;;4.33;3.33;;;;;;;12.59;56.49;97921.09;8312291;28;20247;-76
2023/01/07 11:41:53;;;;;;;2.90;2.70;;;;;;;12.44;57.65;97902.81;8314430;28;20234;-76
2023/01/07 11:45:57;;;;;;;3.87;2.43;;;;;;;12.59;62.63;97889.94;8313815;28;20233;-78
2023/01/07 11:50:23;;;;;;;2.23;2.13;;;;;;;13.08;56.59;97895.06;8314177;28;20309;-76
2023/01/07 11:54:27;;;;;;;2.77;2.57;;;;;;;13.52;53.63;97885.66;8312622;28;20317;-79
2023/01/07 11:58:32;;;;;;;3.63;2.30;;;;;;;13.28;53.74;97881.75;8313351;28;20232;-78
2023/01/07 12:02:35;;;;;;;2.47;2.27;;;;;;;12.97;53.62;97869.66;8312836;28;20237;-76
2023/01/07 12:06:41;;;;;;;2.50;2.30;;;;;;;13.06;53.13;97844.88;8312368;28;20235;-76
2023/01/07 12:10:44;;;;;;;3.03;2.83;;;;;;;13.01;52.86;97849.53;8311886;28;20360;-76
2023/01/07 12:14:47;;;;;;;2.30;2.20;;;;;;;13.12;52.70;97857.56;8312452;28;20498;-75
2023/01/07 12:19:10;;;;;;;2.00;1.90;;;;;;;13.24;51.84;97856.84;8317931;28;20237;-76
2023/01/07 12:23:25;;;;;;;1.90;1.80;;;;;;;13.30;51.40;97840.91;8319101;28;20238;-76
2023/01/07 12:27:34;;;;;;;2.00;1.90;;;;;;;12.81;51.66;97819.44;8318856;28;20390;-76
2023/01/07 12:31:43;;;;;;;2.00;1.90;;;;;;;13.20;51.08;97837.16;8318483;28;20254;-75
2023/01/07 12:35:47;;;;;;;1.97;1.87;;;;;;;13.16;51.13;97834.81;8317559;28;20244;-75
2023/01/07 12:39:54;;;;;;;1.70;1.60;;;;;;;13.03;51.08;97829.47;8318274;28;20324;-76
2023/01/07 12:44:15;;;;;;;1.80;1.70;;;;;;;13.18;50.63;97819.97;8318526;28;20425;-76
2023/01/07 12:48:24;;;;;;;2.50;2.30;;;;;;;13.29;50.59;97812.41;8319598;28;20225;-77
2023/01/07 12:52:36;;;;;;;1.90;1.80;;;;;;;12.93;50.71;97805.75;8317930;28;20247;-76
2023/01/07 12:56:44;;;;;;;2.30;2.20;;;;;;;13.09;49.89;97801.34;8317926;28;20425;-76
2023/01/07 13:00:52;;;;;;;2.10;2.00;;;;;;;13.25;50.23;97788.31;8317468;28;20303;-75
2023/01/07 13:05:03;;;;;;;2.10;2.00;;;;;;;13.27;49.88;97786.47;8317354;28;20233;-75
2023/01/07 13:09:13;;;;;;;2.33;2.03;;;;;;;13.60;50.21;97775.03;8317376;28;20253;-76
2023/01/07 13:13:22;;;;;;;2.20;2.10;;;;;;;13.51;49.57;97772.16;8317237;28;20225;-76
2023/01/07 13:17:27;;;;;;;2.50;2.30;;;;;;;13.77;48.40;97763.63;8317325;28;20448;-76
2023/01/07 13:21:30;;;;;;;2.17;2.00;;;;;;;13.69;50.20;97758.03;8317026;28;20234;-75
2023/01/07 13:25:45;;;;;;;2.17;2.07;;;;;;;13.58;48.94;97737.03;8317361;28;20249;-75
2023/01/07 13:30:08;;;;;;;2.50;2.00;;;;;;;13.24;48.94;97690.41;8316298;28;20257;-75
2023/01/07 13:34:18;;;;;;;2.37;2.10;;;;;;;13.51;49.86;97752.16;8316912;28;20229;-76
2023/01/07 13:38:34;;;;;;;2.30;2.10;;;;;;;13.52;48.92;97738.25;8316866;28;20232;-75
2023/01/07 13:42:43;;;;;;;2.17;2.07;;;;;;;13.56;48.83;97744.09;8316717;28;20229;-75
2023/01/07 13:46:48;;;;;;;2.30;2.17;;;;;;;13.82;49.20;97745.09;8315941;28;20230;-75
2023/01/07 13:50:57;;;;;;;1.80;1.70;;;;;;;14.17;49.23;97734.28;8315899;28;20226;-75
2023/01/07 13:55:01;;;;;;;3.47;2.10;;;;;;;14.21;48.38;97733.16;8315755;28;20258;-75
2023/01/07 13:59:25;;;;;;;2.00;1.90;;;;;;;13.83;48.63;97728.56;8315957;28;20222;-75
2023/01/07 14:03:34;;;;;;;3.17;2.67;;;;;;;14.20;48.23;97732.34;8315893;28;20236;-75
2023/01/07 14:07:44;;;;;;;2.63;2.43;;;;;;;13.68;48.64;97714.72;8315312;28;20249;-75
2023/01/07 14:12:08;;;;;;;2.20;2.00;;;;;;;13.75;48.91;97734.25;8314904;28;20229;-75
2023/01/07 14:16:15;;;;;;;2.30;2.20;;;;;;;14.01;48.53;97716.16;8315654;28;20540;-75
2023/01/07 14:20:25;;;;;;;2.33;2.23;;;;;;;14.19;47.97;97711.59;8315598;28;20271;-75
2023/01/07 14:24:50;;;;;;;2.37;2.17;;;;;;;14.12;47.51;97690.28;8315377;28;20230;-75
2023/01/07 14:29:13;;;;;;;2.40;2.20;;;;;;;14.41;47.82;97713.66;8314958;28;20254;-75
2023/01/07 14:33:19;;;;;;;2.70;2.50;;;;;;;14.08;47.91;97720.91;8314560;28;20257;-74
2023/01/07 14:37:34;;;;;;;2.80;2.60;;;;;;;14.33;47.76;97721.13;8314524;28;20222;-75
2023/01/07 14:42:15;;;;;;;2.33;2.13;;;;;;;14.24;48.21;97720.78;8313651;28;20229;-78
2023/01/07 14:46:44;;;;;;;2.33;2.13;;;;;;;14.26;48.63;97725.91;8314111;28;20224;-74
2023/01/07 14:50:51;;;;;;;2.00;1.90;;;;;;;14.44;47.89;97729.09;8313663;28;20230;-76
2023/01/07 14:55:13;;;;;;;2.90;2.70;;;;;;;14.20;47.76;97721.91;8314148;28;20238;-75
2023/01/07 14:59:29;;;;;;;2.40;2.30;;;;;;;14.20;48.04;97721.91;8313798;28;20409;-75
2023/01/07 15:03:44;;;;;;;3.33;2.53;;;;;;;14.03;48.78;97728.19;8314032;28;20226;-74
2023/01/07 15:07:50;;;;;;;3.20;2.90;;;;;;;13.92;49.41;97719.34;8312759;28;20234;-75
2023/01/07 15:16:16;;;;;;;2.80;2.60;;;;;;;13.61;49.27;97713.41;8313565;28;20242;-75
2023/01/07 15:20:19;;;;;;;3.27;2.63;;;;;;;13.41;50.62;97709.44;8313849;28;20313;-76
2023/01/07 15:24:30;;;;;;;2.00;1.90;;;;;;;13.38;50.53;97714.81;8313766;28;20289;-76
2023/01/07 15:28:44;;;;;;;2.73;2.50;;;;;;;13.15;51.17;97708.34;8319404;28;20257;-75
2023/01/07 15:32:51;;;;;;;3.77;3.20;;;;;;;12.89;51.38;97692.50;8312405;28;20524;-75
2023/01/07 15:36:54;;;;;;;3.43;2.70;;;;;;;12.85;52.62;97709.19;8312202;28;20297;-75
2023/01/07 15:40:57;;;;;;;3.40;3.10;;;;;;;12.74;52.67;97702.03;8312285;28;20233;-75
2023/01/07 15:45:01;;;;;;;4.10;3.70;;;;;;;12.66;53.54;97710.25;8312234;28;20531;-75
2023/01/07 15:49:15;;;;;;;5.00;4.50;;;;;;;12.62;53.26;97707.91;8312544;28;20270;-75
2023/01/07 15:53:25;;;;;;;5.60;5.10;;;;;;;12.47;53.74;97714.78;8312015;28;20244;-75
2023/01/07 15:57:33;;;;;;;4.60;4.20;;;;;;;12.35;53.41;97707.69;8311471;28;20374;-75
2023/01/07 16:01:45;;;;;;;6.53;5.77;;;;;;;12.34;53.84;97709.47;8312353;28;20257;-75
2023/01/07 16:05:49;;;;;;;11.10;9.83;;;;;;;12.29;54.23;97712.31;8311376;28;20239;-75
2023/01/07 16:09:52;;;;;;;12.83;11.43;;;;;;;12.12;54.18;97710.63;8311977;28;20574;-76
2023/01/07 16:13:56;;;;;;;11.10;9.90;;;;;;;12.08;54.59;97709.13;8318029;28;20226;-76
2023/01/07 16:18:01;;;;;;;13.27;11.77;;;;;;;11.99;54.66;97691.47;8312491;28;20227;-76
2023/01/07 16:22:05;;;;;;;13.53;12.10;;;;;;;11.62;55.31;97695.19;8312214;28;20226;-75
2023/01/07 16:26:10;;;;;;;16.30;13.97;;;;;;;11.79;54.77;97694.28;8311960;28;20227;-75
2023/01/07 16:30:14;;;;;;;13.43;12.03;;;;;;;11.77;55.19;97702.13;8311895;28;20230;-75
2023/01/07 16:34:53;;;;;;;14.37;12.97;;;;;;;11.66;54.54;97692.31;8312191;28;20250;-75
2023/01/07 16:38:59;;;;;;;19.10;17.10;;;;;;;11.50;54.80;97694.06;8311452;28;20420;-75
2023/01/07 16:43:02;;;;;;;11.73;10.53;;;;;;;11.28;55.57;97691.75;8311857;28;20242;-74
2023/01/07 16:47:06;;;;;;;9.83;8.83;;;;;;;11.43;55.38;97690.13;8312031;28;20239;-75
2023/01/07 16:51:38;;;;;;;9.33;8.30;;;;;;;11.42;55.02;97676.28;8311843;28;20226;-76
2023/01/07 16:55:49;;;;;;;10.77;9.13;;;;;;;11.34;55.17;97673.28;8311059;28;20369;-75
2023/01/07 16:59:54;;;;;;;10.37;8.80;;;;;;;11.33;55.88;97664.66;8311314;28;20377;-75
2023/01/07 17:03:58;;;;;;;16.73;11.90;;;;;;;11.24;56.07;97677.28;8315019;28;20245;-75
2023/01/07 17:08:05;;;;;;;15.07;13.23;;;;;;;11.26;55.94;97671.06;8316459;28;20268;-76
2023/01/07 17:12:26;;;;;;;20.83;18.60;;;;;;;11.29;56.26;97663.16;8317290;28;20361;-76
2023/01/07 17:16:31;;;;;;;22.30;17.47;;;;;;;11.14;55.76;97661.34;8317286;28;20238;-75
2023/01/07 17:20:42;;;;;;;23.67;18.67;;;;;;;10.70;55.94;97594.50;8316943;28;20230;-76
2023/01/07 17:24:47;;;;;;;22.00;17.20;;;;;;;11.03;56.20;97667.06;8316642;28;20226;-76
2023/01/07 17:28:51;;;;;;;21.73;18.07;;;;;;;10.88;55.65;97641.94;8316533;28;20393;-76
2023/01/07 17:32:54;;;;;;;24.60;18.10;;;;;;;10.83;55.71;97652.53;8316767;28;20248;-75
2023/01/07 17:36:57;;;;;;;37.33;29.57;;;;;;;10.86;56.16;97644.63;8317135;28;20238;-76
2023/01/07 17:41:02;;;;;;;63.17;50.47;;;;;;;10.80;56.18;97650.09;8315715;28;20237;-75
2023/01/07 17:45:06;;;;;;;46.07;39.03;;;;;;;10.83;56.09;97662.88;8316304;28;20305;-76
2023/01/07 17:49:10;;;;;;;45.67;37.13;;;;;;;10.76;56.20;97662.38;8315983;28;20222;-75
2023/01/07 17:53:20;;;;;;;39.87;32.93;;;;;;;10.43;56.25;97630.38;8316150;28;20234;-76
2023/01/07 17:57:24;;;;;;;34.37;29.13;;;;;;;10.56;56.18;97649.56;8316106;28;20230;-75
2023/01/07 18:01:26;;;;;;;35.37;30.23;;;;;;;10.59;56.45;97658.97;8315847;28;20229;-75
2023/01/07 18:05:30;;;;;;;46.50;36.80;;;;;;;10.64;55.87;97657.81;8315357;28;20701;-75
2023/01/07 18:09:32;;;;;;;46.17;35.00;;;;;;;10.61;56.12;97657.13;8315699;28;20253;-76
2023/01/07 18:13:37;;;;;;;46.30;36.97;;;;;;;10.51;56.16;97643.81;8315728;28;20545;-75
2023/01/07 18:17:40;;;;;;;45.57;37.97;;;;;;;10.44;56.14;97642.41;8315471;28;20258;-75
2023/01/07 18:21:43;;;;;;;47.20;37.80;;;;;;;10.64;56.23;97644.00;8315000;28;20230;-74
2023/01/07 18:25:46;;;;;;;19.07;16.10;;;;;;;10.67;56.48;97643.88;8315540;28;20351;-75
2023/01/07 18:29:50;;;;;;;17.50;15.17;;;;;;;10.59;56.49;97635.66;8315586;28;20234;-77
2023/01/07 18:33:53;;;;;;;23.57;20.13;;;;;;;10.59;56.30;97622.72;8320652;28;20237;-73
2023/01/07 18:37:56;;;;;;;15.10;13.23;;;;;;;10.47;56.93;97621.53;8315048;28;20252;-70
2023/01/07 18:41:59;;;;;;;13.53;11.07;;;;;;;10.30;57.57;97628.41;8314422;28;20233;-72
2023/01/07 18:46:07;;;;;;;10.67;7.30;;;;;;;12.73;67.86;97626.75;8314487;28;20245;-74
2023/01/07 18:50:10;;;;;;;14.60;10.63;;;;;;;12.62;54.28;97625.63;8313447;28;20461;-73
2023/01/07 18:54:12;;;;;;;13.40;10.77;;;;;;;11.76;54.42;97624.38;8314138;28;20253;-73
2023/01/07 18:58:16;;;;;;;12.37;10.03;;;;;;;11.21;56.16;97631.59;8314091;28;20246;-73
2023/01/07 19:02:21;;;;;;;13.70;10.87;;;;;;;11.11;55.19;97633.81;8313965;28;20270;-73
2023/01/07 19:06:24;;;;;;;12.00;10.20;;;;;;;11.04;55.74;97642.00;8312653;28;20253;-72
2023/01/07 19:10:27;;;;;;;13.80;11.70;;;;;;;10.99;55.48;97638.81;8312850;28;20226;-73
2023/01/07 19:14:30;;;;;;;15.70;12.03;;;;;;;10.74;55.74;97637.47;8312115;28;20455;-72
2023/01/07 19:18:34;;;;;;;17.57;13.00;;;;;;;10.72;55.45;97619.41;8312789;28;20232;-71
2023/01/07 19:22:37;;;;;;;17.47;13.63;;;;;;;10.52;56.45;97616.97;8312449;28;20234;-72
2023/01/07 19:26:41;;;;;;;16.73;12.93;;;;;;;10.24;57.65;97613.13;8312258;28;20226;-72